createdAt,value
2019-03-30T00:00:26.042Z,7.20
2019-03-30T00:03:11.123Z,7.10
2019-03-30T00:05:55.999Z,7.10
2019-03-30T00:08:40.798Z,7.10
2019-03-30T00:11:25.493Z,7.10
2019-03-30T00:14:10.019Z,7.10
2019-03-30T00:16:54.595Z,7.00
2019-03-30T00:19:39.324Z,7.00
2019-03-30T00:22:24.548Z,6.90
2019-03-30T00:25:09.527Z,6.90
2019-03-30T00:27:54.044Z,6.90
2019-03-30T00:30:38.663Z,6.90
2019-03-30T00:33:23.439Z,6.80
2019-03-30T00:36:08.109Z,6.80
2019-03-30T00:38:52.579Z,6.80
2019-03-30T00:41:37.387Z,6.80
2019-03-30T00:44:22.363Z,6.70
2019-03-30T00:47:07.290Z,6.60
2019-03-30T00:49:51.893Z,6.60
2019-03-30T00:52:36.527Z,6.60
2019-03-30T00:55:21.379Z,6.50
2019-03-30T00:58:06.177Z,6.50
2019-03-30T01:00:50.798Z,6.50
2019-03-30T01:03:35.681Z,6.50
2019-03-30T01:06:20.334Z,6.50
2019-03-30T01:09:05.454Z,6.50
2019-03-30T01:11:50.079Z,6.50
2019-03-30T01:14:34.551Z,6.50
2019-03-30T01:17:19.455Z,6.50
2019-03-30T01:20:05.987Z,6.50
2019-03-30T01:22:51.083Z,6.50
2019-03-30T01:25:36.414Z,6.50
2019-03-30T01:28:21.123Z,6.50
2019-03-30T01:31:05.860Z,6.40
2019-03-30T01:33:50.361Z,6.40
2019-03-30T01:36:35.070Z,6.40
2019-03-30T01:39:19.665Z,6.40
2019-03-30T01:42:04.751Z,6.40
2019-03-30T01:44:49.982Z,6.30
2019-03-30T01:47:34.816Z,6.30
2019-03-30T01:50:19.386Z,6.30
2019-03-30T01:53:03.907Z,6.30
2019-03-30T01:55:49.065Z,6.20
2019-03-30T01:58:33.911Z,6.20
2019-03-30T02:01:18.910Z,6.20
2019-03-30T02:04:03.741Z,6.20
2019-03-30T02:06:48.506Z,6.20
2019-03-30T02:09:33.222Z,6.20
2019-03-30T02:12:17.803Z,6.20
2019-03-30T02:15:04.267Z,6.10
2019-03-30T02:17:49.170Z,6.10
2019-03-30T02:20:40.932Z,6.10
2019-03-30T02:23:26.056Z,6.00
2019-03-30T02:26:10.901Z,6.00
2019-03-30T02:28:55.778Z,5.90
2019-03-30T02:31:40.911Z,5.90
2019-03-30T02:34:26.100Z,5.90
2019-03-30T02:37:11.122Z,5.90
2019-03-30T02:39:56.112Z,5.90
2019-03-30T02:42:40.925Z,5.90
2019-03-30T02:45:26.038Z,5.90
2019-03-30T02:48:11.398Z,5.90
2019-03-30T02:50:56.426Z,5.80
2019-03-30T02:53:41.015Z,5.80
2019-03-30T02:56:25.571Z,5.80
2019-03-30T02:59:10.268Z,5.70
2019-03-30T03:01:54.863Z,5.80
2019-03-30T03:04:39.617Z,5.70
2019-03-30T03:07:24.363Z,5.70
2019-03-30T03:10:09.646Z,5.70
2019-03-30T03:12:54.681Z,5.70
2019-03-30T03:15:39.251Z,5.70
2019-03-30T03:18:23.788Z,5.70
2019-03-30T03:21:08.898Z,5.80
2019-03-30T03:23:53.981Z,5.70
2019-03-30T03:26:38.551Z,5.80
2019-03-30T03:29:23.103Z,5.80
2019-03-30T03:32:07.585Z,5.80
2019-03-30T03:34:52.292Z,5.80
2019-03-30T03:37:45.699Z,5.80
2019-03-30T03:40:23.665Z,5.80
2019-03-30T03:43:08.688Z,5.80
2019-03-30T03:45:53.694Z,5.80
2019-03-30T03:48:38.326Z,5.70
2019-03-30T03:51:26.294Z,5.70
2019-03-30T03:54:10.748Z,5.70
2019-03-30T03:56:56.572Z,5.70
2019-03-30T03:59:41.665Z,5.70
2019-03-30T04:02:30.509Z,5.70
2019-03-30T04:05:17.004Z,5.80
2019-03-30T04:08:03.713Z,5.80
2019-03-30T04:10:49.783Z,5.80
2019-03-30T04:13:37.016Z,5.80
2019-03-30T04:16:21.855Z,5.70
2019-03-30T04:19:06.445Z,5.70
2019-03-30T04:21:51.313Z,5.70
2019-03-30T04:24:36.149Z,5.70
2019-03-30T04:27:21.285Z,5.60
2019-03-30T04:30:06.289Z,5.60
2019-03-30T04:32:51.167Z,5.60
2019-03-30T04:35:35.892Z,5.50
2019-03-30T04:38:21.802Z,5.60
2019-03-30T04:41:06.661Z,5.60
2019-03-30T04:43:51.552Z,5.60
2019-03-30T04:46:37.276Z,5.60
2019-03-30T04:49:26.290Z,5.60
2019-03-30T04:52:11.107Z,5.60
2019-03-30T04:54:55.589Z,5.60
2019-03-30T04:57:40.074Z,5.60
2019-03-30T05:00:24.662Z,5.60
2019-03-30T05:03:09.918Z,5.50
2019-03-30T05:05:54.730Z,5.60
2019-03-30T05:08:39.330Z,5.60
2019-03-30T05:11:24.075Z,5.60
2019-03-30T05:14:08.630Z,5.60
2019-03-30T05:16:53.246Z,5.60
2019-03-30T05:19:38.278Z,5.60
2019-03-30T05:22:22.806Z,5.60
2019-03-30T05:25:07.541Z,5.50
2019-03-30T05:27:52.465Z,5.60
2019-03-30T05:30:36.952Z,5.60
2019-03-30T05:33:21.412Z,5.60
2019-03-30T05:36:06.121Z,5.60
2019-03-30T05:38:50.684Z,5.60
2019-03-30T05:41:35.326Z,5.60
2019-03-30T05:44:19.726Z,5.70
2019-03-30T05:47:04.556Z,5.70
2019-03-30T05:49:48.870Z,5.70
2019-03-30T05:52:35.624Z,5.70
2019-03-30T05:55:20.210Z,5.80
2019-03-30T05:58:05.208Z,5.90
2019-03-30T06:00:50.072Z,6.00
2019-03-30T06:03:35.029Z,6.10
2019-03-30T06:06:19.777Z,6.10
2019-03-30T06:09:05.022Z,6.20
2019-03-30T06:11:49.995Z,6.30
2019-03-30T06:14:34.722Z,6.50
2019-03-30T06:17:19.749Z,6.60
2019-03-30T06:20:07.644Z,6.70
2019-03-30T06:22:52.382Z,6.90
2019-03-30T06:25:37.130Z,7.00
2019-03-30T06:28:22.167Z,7.20
2019-03-30T06:31:07.064Z,7.30
2019-03-30T06:33:51.849Z,7.50
2019-03-30T06:36:36.507Z,7.70
2019-03-30T06:39:21.151Z,7.90
2019-03-30T06:42:05.771Z,8.10
2019-03-30T06:44:50.863Z,8.20
2019-03-30T06:47:35.357Z,8.30
2019-03-30T06:50:20.116Z,8.50
2019-03-30T06:53:04.813Z,8.60
2019-03-30T06:55:49.842Z,8.80
2019-03-30T06:58:35.039Z,8.90
2019-03-30T07:01:19.678Z,9.10
2019-03-30T07:04:04.567Z,9.30
2019-03-30T07:06:50.842Z,9.50
2019-03-30T07:09:37.634Z,9.70
2019-03-30T07:12:23.261Z,9.90
2019-03-30T07:15:08.978Z,10.10
2019-03-30T07:17:57.436Z,10.30
2019-03-30T07:20:42.259Z,10.50
2019-03-30T07:23:27.154Z,10.70
2019-03-30T07:26:12.230Z,10.90
2019-03-30T07:28:57.431Z,11.10
2019-03-30T07:31:42.376Z,11.30
2019-03-30T07:34:26.938Z,11.50
2019-03-30T07:37:11.403Z,11.70
2019-03-30T07:39:56.040Z,11.90
2019-03-30T07:42:41.339Z,12.10
2019-03-30T07:45:26.336Z,12.30
2019-03-30T07:48:10.912Z,12.50
2019-03-30T07:50:56.125Z,12.70
2019-03-30T07:53:44.697Z,12.90
2019-03-30T07:56:27.074Z,13.10
2019-03-30T07:59:11.688Z,13.20
2019-03-30T08:01:57.070Z,13.40
2019-03-30T08:04:42.079Z,13.50
2019-03-30T08:07:27.199Z,13.70
2019-03-30T08:10:12.504Z,13.80
2019-03-30T08:12:57.513Z,13.90
2019-03-30T08:15:42.326Z,14.10
2019-03-30T08:18:26.978Z,14.20
2019-03-30T08:21:11.886Z,14.40
2019-03-30T08:23:56.475Z,14.50
2019-03-30T08:26:43.886Z,14.60
2019-03-30T08:29:28.731Z,14.70
2019-03-30T08:32:13.830Z,14.90
2019-03-30T08:34:58.795Z,14.90
2019-03-30T08:37:43.827Z,15.00
2019-03-30T08:40:28.435Z,15.10
2019-03-30T08:43:13.002Z,15.20
2019-03-30T08:45:58.186Z,15.30
2019-03-30T08:48:42.986Z,15.30
2019-03-30T08:51:27.692Z,15.40
2019-03-30T08:54:12.431Z,15.50
2019-03-30T08:56:57.051Z,15.50
2019-03-30T08:59:41.575Z,15.70
2019-03-30T09:02:26.796Z,15.80
2019-03-30T09:05:11.856Z,15.90
2019-03-30T09:07:56.428Z,16.10
2019-03-30T09:10:41.186Z,16.20
2019-03-30T09:13:25.794Z,16.30
2019-03-30T09:16:10.828Z,16.40
2019-03-30T09:18:55.981Z,16.50
2019-03-30T09:21:40.785Z,16.60
2019-03-30T09:24:25.711Z,16.70
2019-03-30T09:27:10.511Z,16.80
2019-03-30T09:29:55.466Z,17.00
2019-03-30T09:32:39.981Z,17.10
2019-03-30T09:35:25.101Z,17.20
2019-03-30T09:38:10.210Z,17.30
2019-03-30T09:40:55.486Z,17.30
2019-03-30T09:43:40.125Z,17.40
2019-03-30T09:46:25.346Z,17.50
2019-03-30T09:49:10.555Z,17.50
2019-03-30T09:51:55.394Z,17.60
2019-03-30T09:54:39.991Z,17.70
2019-03-30T09:57:25.179Z,17.70
2019-03-30T10:00:10.781Z,17.70
2019-03-30T10:02:55.900Z,17.80
2019-03-30T10:05:40.674Z,17.90
2019-03-30T10:08:25.860Z,17.90
2019-03-30T10:11:10.934Z,18.00
2019-03-30T10:13:56.009Z,18.10
2019-03-30T10:16:40.583Z,18.20
2019-03-30T10:19:27.735Z,18.20
2019-03-30T10:22:11.476Z,18.20
2019-03-30T10:24:58.446Z,18.30
2019-03-30T10:27:44.131Z,18.30
2019-03-30T10:30:29.267Z,18.30
2019-03-30T10:33:14.346Z,18.30
2019-03-30T10:35:59.115Z,18.30
2019-03-30T10:38:43.914Z,18.40
2019-03-30T10:41:28.971Z,18.20
2019-03-30T10:44:13.714Z,18.20
2019-03-30T10:46:58.809Z,18.30
2019-03-30T10:49:43.752Z,18.30
2019-03-30T10:52:28.477Z,18.40
2019-03-30T10:55:13.462Z,18.40
2019-03-30T10:57:59.092Z,18.40
2019-03-30T11:00:43.834Z,18.40
2019-03-30T11:03:29.059Z,18.40
2019-03-30T11:06:14.029Z,18.50
2019-03-30T11:08:59.064Z,18.60
2019-03-30T11:11:44.430Z,18.70
2019-03-30T11:14:29.474Z,18.80
2019-03-30T11:17:14.589Z,18.90
2019-03-30T11:19:59.962Z,19.10
2019-03-30T11:22:45.010Z,19.30
2019-03-30T11:25:30.047Z,19.50
2019-03-30T11:28:15.240Z,19.60
2019-03-30T11:31:00.748Z,19.60
2019-03-30T11:33:45.434Z,19.50
2019-03-30T11:36:30.511Z,19.40
2019-03-30T11:39:15.389Z,19.20
2019-03-30T11:42:00.224Z,19.30
2019-03-30T11:44:45.178Z,19.30
2019-03-30T11:47:30.304Z,19.40
2019-03-30T11:50:15.074Z,19.50
2019-03-30T11:53:00.061Z,19.50
2019-03-30T11:55:45.301Z,19.50
2019-03-30T11:58:30.083Z,19.60
2019-03-30T12:01:15.371Z,19.50
2019-03-30T12:04:00.256Z,19.50
2019-03-30T12:06:45.224Z,19.50
2019-03-30T12:09:29.935Z,19.80
2019-03-30T12:12:14.814Z,19.90
2019-03-30T12:14:59.248Z,20.10
2019-03-30T12:17:43.936Z,20.40
2019-03-30T12:20:28.469Z,20.50
2019-03-30T12:23:13.051Z,20.40
2019-03-30T12:25:57.957Z,20.30
2019-03-30T12:28:42.543Z,20.30
2019-03-30T12:31:27.059Z,20.30
2019-03-30T12:34:13.238Z,20.40
2019-03-30T12:36:58.523Z,20.70
2019-03-30T12:39:43.568Z,20.90
2019-03-30T12:42:29.237Z,20.90
2019-03-30T12:45:14.053Z,21.00
2019-03-30T12:47:58.842Z,20.90
2019-03-30T12:50:43.996Z,20.80
2019-03-30T12:53:28.946Z,21.00
2019-03-30T12:56:14.165Z,21.40
2019-03-30T12:58:59.414Z,21.50
2019-03-30T13:01:44.622Z,21.30
2019-03-30T13:04:29.370Z,21.10
2019-03-30T13:07:13.979Z,21.40
2019-03-30T13:09:58.614Z,21.90
2019-03-30T13:12:43.255Z,21.90
2019-03-30T13:15:28.409Z,21.60
2019-03-30T13:18:13.219Z,21.30
2019-03-30T13:20:58.078Z,21.40
2019-03-30T13:23:43.165Z,22.10
2019-03-30T13:26:28.133Z,22.60
2019-03-30T13:29:12.903Z,22.80
2019-03-30T13:31:57.684Z,23.00
2019-03-30T13:34:42.943Z,23.20
2019-03-30T13:37:27.901Z,23.70
2019-03-30T13:40:13.031Z,24.20
2019-03-30T13:42:57.899Z,24.10
2019-03-30T13:45:42.783Z,24.50
2019-03-30T13:48:27.520Z,24.80
2019-03-30T13:51:12.828Z,25.40
2019-03-30T13:53:57.832Z,25.50
2019-03-30T13:56:42.914Z,25.60
2019-03-30T13:59:28.004Z,25.10
2019-03-30T14:02:13.211Z,25.30
2019-03-30T14:04:58.440Z,25.50
2019-03-30T14:07:43.268Z,25.40
2019-03-30T14:10:27.784Z,25.60
2019-03-30T14:13:12.420Z,25.50
2019-03-30T14:15:56.993Z,25.40
2019-03-30T14:18:41.511Z,25.40
2019-03-30T14:21:26.794Z,25.50
2019-03-30T14:24:12.105Z,25.20
2019-03-30T14:26:56.715Z,25.20
2019-03-30T14:29:41.944Z,25.00
2019-03-30T14:32:26.631Z,25.00
2019-03-30T14:35:12.074Z,25.30
2019-03-30T14:37:56.912Z,25.20
2019-03-30T14:40:41.441Z,25.40
2019-03-30T14:43:26.154Z,25.20
2019-03-30T14:46:11.070Z,24.90
2019-03-30T14:48:56.294Z,24.90
2019-03-30T14:51:41.102Z,25.00
2019-03-30T14:54:26.014Z,24.80
2019-03-30T14:57:11.102Z,24.50
2019-03-30T14:59:57.474Z,24.60
2019-03-30T15:02:42.456Z,23.70
2019-03-30T15:05:27.525Z,23.60
2019-03-30T15:08:12.595Z,23.40
2019-03-30T15:10:57.633Z,23.60
2019-03-30T15:13:42.773Z,23.50
2019-03-30T15:16:27.404Z,23.70
2019-03-30T15:19:12.065Z,23.60
2019-03-30T15:21:57.021Z,23.70
2019-03-30T15:24:41.574Z,23.60
2019-03-30T15:27:26.326Z,23.70
2019-03-30T15:30:11.331Z,24.30
2019-03-30T15:32:55.955Z,24.90
2019-03-30T15:35:40.954Z,25.10
2019-03-30T15:38:26.146Z,24.90
2019-03-30T15:41:11.371Z,25.30
2019-03-30T15:43:56.483Z,25.50
2019-03-30T15:46:41.691Z,25.60
2019-03-30T15:49:26.696Z,25.80
2019-03-30T15:52:14.040Z,24.90
2019-03-30T15:54:57.952Z,23.70
2019-03-30T15:57:43.068Z,23.00
2019-03-30T16:00:27.546Z,23.30
2019-03-30T16:03:12.069Z,24.00
2019-03-30T16:05:57.289Z,24.20
2019-03-30T16:08:42.066Z,24.90
2019-03-30T16:11:26.991Z,25.40
2019-03-30T16:14:12.141Z,25.50
2019-03-30T16:16:57.051Z,24.90
2019-03-30T16:19:41.920Z,24.80
2019-03-30T16:22:26.450Z,25.30
2019-03-30T16:25:11.208Z,25.60
2019-03-30T16:27:56.297Z,25.80
2019-03-30T16:30:41.480Z,25.80
2019-03-30T16:33:26.744Z,25.50
2019-03-30T16:36:11.540Z,25.20
2019-03-30T16:38:56.242Z,25.00
2019-03-30T16:41:40.675Z,24.90
2019-03-30T16:44:25.185Z,25.10
2019-03-30T16:47:09.709Z,25.00
2019-03-30T16:49:54.381Z,24.40
2019-03-30T16:52:41.168Z,23.70
2019-03-30T16:55:26.130Z,22.10
2019-03-30T16:58:10.814Z,21.20
2019-03-30T17:00:57.099Z,20.50
2019-03-30T17:03:41.969Z,19.70
2019-03-30T17:06:27.000Z,19.30
2019-03-30T17:09:12.066Z,18.90
2019-03-30T17:11:56.669Z,18.60
2019-03-30T17:14:41.205Z,18.30
2019-03-30T17:17:25.838Z,18.10
2019-03-30T17:20:10.585Z,18.00
2019-03-30T17:22:58.673Z,17.80
2019-03-30T17:25:42.117Z,17.70
2019-03-30T17:28:26.915Z,17.50
2019-03-30T17:31:11.788Z,17.40
2019-03-30T17:33:56.367Z,17.20
2019-03-30T17:36:42.678Z,17.00
2019-03-30T17:39:27.688Z,17.00
2019-03-30T17:42:12.920Z,16.80
2019-03-30T17:44:57.743Z,16.70
2019-03-30T17:47:42.201Z,16.60
2019-03-30T17:50:26.979Z,16.50
2019-03-30T17:53:11.920Z,16.30
2019-03-30T17:55:57.167Z,16.10
2019-03-30T17:58:41.840Z,15.90
2019-03-30T18:01:27.109Z,15.70
2019-03-30T18:04:12.002Z,15.60
2019-03-30T18:06:56.751Z,15.40
2019-03-30T18:09:41.741Z,15.10
2019-03-30T18:12:26.786Z,15.00
2019-03-30T18:15:12.219Z,14.80
2019-03-30T18:17:57.056Z,14.60
2019-03-30T18:20:42.055Z,14.40
2019-03-30T18:23:26.745Z,14.20
2019-03-30T18:26:11.339Z,14.10
2019-03-30T18:28:56.020Z,14.00
2019-03-30T18:31:41.070Z,13.80
2019-03-30T18:34:26.691Z,13.70
2019-03-30T18:37:12.117Z,13.60
2019-03-30T18:39:57.921Z,13.50
2019-03-30T18:42:42.951Z,13.40
2019-03-30T18:45:28.205Z,13.30
2019-03-30T18:48:15.558Z,13.20
2019-03-30T18:51:00.140Z,13.00
2019-03-30T18:53:45.238Z,13.00
2019-03-30T18:56:29.884Z,12.90
2019-03-30T18:59:14.835Z,12.80
2019-03-30T19:01:59.820Z,12.70
2019-03-30T19:04:44.939Z,12.70
2019-03-30T19:07:30.034Z,12.60
2019-03-30T19:10:15.210Z,12.50
2019-03-30T19:13:00.442Z,12.50
2019-03-30T19:15:45.368Z,12.40
2019-03-30T19:18:30.245Z,12.30
2019-03-30T19:21:15.328Z,12.20
2019-03-30T19:24:00.418Z,12.10
2019-03-30T19:26:45.612Z,12.10
2019-03-30T19:29:30.841Z,12.00
2019-03-30T19:32:16.021Z,11.90
2019-03-30T19:35:01.232Z,11.80
2019-03-30T19:37:46.430Z,11.80
2019-03-30T19:40:31.420Z,11.70
2019-03-30T19:43:16.489Z,11.60
2019-03-30T19:46:01.553Z,11.60
2019-03-30T19:48:46.172Z,11.50
2019-03-30T19:51:30.739Z,11.50
2019-03-30T19:54:16.033Z,11.50
2019-03-30T19:57:00.717Z,11.40
2019-03-30T19:59:45.754Z,11.40
2019-03-30T20:02:31.062Z,11.30
2019-03-30T20:05:16.255Z,11.30
2019-03-30T20:08:11.409Z,11.10
2019-03-30T20:10:47.497Z,10.90
2019-03-30T20:13:32.584Z,10.90
2019-03-30T20:16:17.867Z,10.90
2019-03-30T20:19:12.134Z,10.90
2019-03-30T20:21:49.779Z,10.80
2019-03-30T20:24:34.964Z,10.80
2019-03-30T20:27:19.740Z,10.80
2019-03-30T20:30:06.793Z,10.70
2019-03-30T20:32:51.579Z,10.70
2019-03-30T20:35:36.954Z,10.60
2019-03-30T20:38:21.973Z,10.60
2019-03-30T20:41:06.843Z,10.50
2019-03-30T20:43:51.804Z,10.50
2019-03-30T20:46:37.042Z,10.50
2019-03-30T20:49:21.994Z,10.40
2019-03-30T20:52:07.205Z,10.40
2019-03-30T20:54:52.324Z,10.30
2019-03-30T20:57:37.614Z,10.20
2019-03-30T21:00:22.454Z,10.20
2019-03-30T21:03:07.484Z,10.10
2019-03-30T21:05:52.504Z,10.10
2019-03-30T21:08:38.012Z,10.00
2019-03-30T21:11:22.743Z,9.90
2019-03-30T21:14:08.018Z,9.80
2019-03-30T21:16:53.058Z,9.70
2019-03-30T21:19:37.948Z,9.60
2019-03-30T21:22:22.834Z,9.50
2019-03-30T21:25:08.027Z,9.50
2019-03-30T21:27:52.782Z,9.40
2019-03-30T21:30:37.528Z,9.30
2019-03-30T21:33:22.633Z,9.30
2019-03-30T21:36:07.850Z,9.20
2019-03-30T21:38:52.957Z,9.20
2019-03-30T21:41:38.047Z,9.10
2019-03-30T21:44:22.649Z,9.10
2019-03-30T21:47:07.651Z,9.10
2019-03-30T21:49:52.198Z,9.00
2019-03-30T21:52:36.812Z,8.90
2019-03-30T21:55:21.800Z,8.80
2019-03-30T21:58:06.881Z,8.80
2019-03-30T22:00:51.950Z,8.70
2019-03-30T22:03:37.222Z,8.60
2019-03-30T22:06:21.875Z,8.50
2019-03-30T22:09:06.709Z,8.50
2019-03-30T22:11:51.699Z,8.50
2019-03-30T22:14:36.618Z,8.50
2019-03-30T22:17:21.829Z,8.50
2019-03-30T22:20:06.927Z,8.40
2019-03-30T22:22:52.313Z,8.40
2019-03-30T22:25:37.405Z,8.40
2019-03-30T22:28:22.578Z,8.40
2019-03-30T22:31:07.601Z,8.30
2019-03-30T22:33:52.647Z,8.30
2019-03-30T22:36:37.832Z,8.20
2019-03-30T22:39:22.806Z,8.20
2019-03-30T22:42:07.662Z,8.10
2019-03-30T22:44:52.449Z,8.20
2019-03-30T22:47:37.197Z,8.10
2019-03-30T22:50:22.179Z,8.10
2019-03-30T22:53:06.717Z,8.10
2019-03-30T22:55:51.291Z,8.10
2019-03-30T22:58:36.374Z,8.00
2019-03-30T23:01:22.082Z,7.90
2019-03-30T23:04:06.890Z,7.80
2019-03-30T23:06:51.623Z,7.70
2019-03-30T23:09:36.312Z,7.70
2019-03-30T23:12:21.414Z,7.70
2019-03-30T23:15:06.548Z,7.70
2019-03-30T23:17:51.687Z,7.80
2019-03-30T23:20:36.710Z,7.70
2019-03-30T23:23:21.382Z,7.60
2019-03-30T23:26:06.368Z,7.50
2019-03-30T23:28:51.320Z,7.40
2019-03-30T23:31:36.839Z,7.40
2019-03-30T23:34:21.737Z,7.50
2019-03-30T23:37:06.841Z,7.50
2019-03-30T23:39:51.358Z,7.40
2019-03-30T23:42:36.126Z,7.30
2019-03-30T23:45:20.501Z,7.30
2019-03-30T23:48:05.098Z,7.40
2019-03-30T23:50:50.032Z,7.30
2019-03-30T23:53:34.422Z,7.30
2019-03-30T23:56:20.795Z,7.10
2019-03-30T23:59:05.873Z,7.10
